sensor_id;sensor_type;location;lat;lon;timestamp;pressure;altitude;pressure_sealevel;temperature;humidity
18987;BME280;9627;59.236;18.142;2023-03-18T00:00:13;100593.97;;;3.88;100.00
18987;BME280;9627;59.236;18.142;2023-03-18T00:02:43;100598.09;;;3.91;100.00
18987;BME280;9627;59.236;18.142;2023-03-18T00:05:11;100596.16;;;3.93;100.00
18987;BME280;9627;59.236;18.142;2023-03-18T00:07:40;100599.06;;;3.90;100.00
18987;BME280;9627;59.236;18.142;2023-03-18T00:10:09;100593.66;;;3.91;100.00
18987;BME280;9627;59.236;18.142;2023-03-18T00:12:36;100592.25;;;3.97;100.00
18987;BME280;9627;59.236;18.142;2023-03-18T00:15:04;100583.41;;;3.98;100.00
18987;BME280;9627;59.236;18.142;2023-03-18T00:17:31;100592.25;;;3.97;100.00
18987;BME280;9627;59.236;18.142;2023-03-18T00:19:59;100594.91;;;3.87;100.00
18987;BME280;9627;59.236;18.142;2023-03-18T00:22:30;100582.38;;;3.81;100.00
18987;BME280;9627;59.236;18.142;2023-03-18T00:24:59;100578.09;;;3.80;100.00
18987;BME280;9627;59.236;18.142;2023-03-18T00:27:26;100585.13;;;3.79;100.00
18987;BME280;9627;59.236;18.142;2023-03-18T00:29:54;100589.19;;;4.01;100.00
18987;BME280;9627;59.236;18.142;2023-03-18T00:32:21;100584.41;;;3.87;100.00
18987;BME280;9627;59.236;18.142;2023-03-18T00:34:48;100583.31;;;3.90;100.00
18987;BME280;9627;59.236;18.142;2023-03-18T00:37:15;100579.81;;;3.99;100.00
18987;BME280;9627;59.236;18.142;2023-03-18T00:39:54;100578.47;;;3.95;100.00
18987;BME280;9627;59.236;18.142;2023-03-18T00:42:23;100572.06;;;3.97;100.00
18987;BME280;9627;59.236;18.142;2023-03-18T00:44:50;100574.16;;;3.94;100.00
18987;BME280;9627;59.236;18.142;2023-03-18T00:47:17;100574.84;;;3.96;100.00
18987;BME280;9627;59.236;18.142;2023-03-18T00:49:45;100570.88;;;3.92;100.00
18987;BME280;9627;59.236;18.142;2023-03-18T00:52:12;100567.16;;;3.85;100.00
18987;BME280;9627;59.236;18.142;2023-03-18T00:54:39;100562.97;;;3.92;100.00
18987;BME280;9627;59.236;18.142;2023-03-18T00:57:06;100560.03;;;4.04;100.00
18987;BME280;9627;59.236;18.142;2023-03-18T00:59:36;100574.28;;;4.02;100.00
18987;BME280;9627;59.236;18.142;2023-03-18T01:02:03;100566.78;;;4.07;100.00
18987;BME280;9627;59.236;18.142;2023-03-18T01:04:31;100566.00;;;3.97;100.00
18987;BME280;9627;59.236;18.142;2023-03-18T01:06:58;100563.19;;;4.08;100.00
18987;BME280;9627;59.236;18.142;2023-03-18T01:09:25;100558.91;;;4.07;100.00
18987;BME280;9627;59.236;18.142;2023-03-18T01:11:52;100556.56;;;4.04;100.00
18987;BME280;9627;59.236;18.142;2023-03-18T01:14:19;100556.00;;;4.10;100.00
18987;BME280;9627;59.236;18.142;2023-03-18T01:16:48;100562.09;;;4.01;100.00
18987;BME280;9627;59.236;18.142;2023-03-18T01:19:15;100552.38;;;4.11;100.00
18987;BME280;9627;59.236;18.142;2023-03-18T01:21:42;100558.63;;;4.10;100.00
18987;BME280;9627;59.236;18.142;2023-03-18T01:24:10;100552.44;;;4.01;100.00
18987;BME280;9627;59.236;18.142;2023-03-18T01:26:37;100552.84;;;3.97;100.00
18987;BME280;9627;59.236;18.142;2023-03-18T01:29:04;100549.16;;;3.90;100.00
18987;BME280;9627;59.236;18.142;2023-03-18T01:31:32;100545.59;;;3.91;100.00
18987;BME280;9627;59.236;18.142;2023-03-18T01:34:02;100541.06;;;3.83;100.00
18987;BME280;9627;59.236;18.142;2023-03-18T01:36:29;100538.03;;;3.78;100.00
18987;BME280;9627;59.236;18.142;2023-03-18T01:38:57;100543.84;;;3.72;100.00
18987;BME280;9627;59.236;18.142;2023-03-18T01:41:24;100528.13;;;3.62;100.00
18987;BME280;9627;59.236;18.142;2023-03-18T01:43:52;100534.59;;;3.68;100.00
18987;BME280;9627;59.236;18.142;2023-03-18T01:46:29;100531.03;;;3.69;100.00
18987;BME280;9627;59.236;18.142;2023-03-18T01:48:57;100530.19;;;3.68;100.00
18987;BME280;9627;59.236;18.142;2023-03-18T01:51:26;100520.94;;;3.64;100.00
18987;BME280;9627;59.236;18.142;2023-03-18T01:53:53;100518.94;;;3.58;100.00
18987;BME280;9627;59.236;18.142;2023-03-18T01:56:21;100513.38;;;3.61;100.00
18987;BME280;9627;59.236;18.142;2023-03-18T01:58:49;100511.31;;;3.55;100.00
18987;BME280;9627;59.236;18.142;2023-03-18T02:01:19;100523.63;;;3.55;100.00
18987;BME280;9627;59.236;18.142;2023-03-18T02:03:47;100521.69;;;3.57;100.00
18987;BME280;9627;59.236;18.142;2023-03-18T02:06:16;100517.94;;;3.59;100.00
18987;BME280;9627;59.236;18.142;2023-03-18T02:08:45;100518.84;;;3.68;100.00
18987;BME280;9627;59.236;18.142;2023-03-18T02:11:12;100519.78;;;3.49;100.00
18987;BME280;9627;59.236;18.142;2023-03-18T02:13:41;100516.19;;;3.50;100.00
18987;BME280;9627;59.236;18.142;2023-03-18T02:16:09;100523.22;;;3.50;100.00
18987;BME280;9627;59.236;18.142;2023-03-18T02:18:40;100518.13;;;3.48;100.00
18987;BME280;9627;59.236;18.142;2023-03-18T02:21:16;100520.50;;;3.42;100.00
18987;BME280;9627;59.236;18.142;2023-03-18T02:23:50;100515.94;;;3.34;100.00
18987;BME280;9627;59.236;18.142;2023-03-18T02:26:22;100501.59;;;3.38;100.00
18987;BME280;9627;59.236;18.142;2023-03-18T02:28:53;100508.22;;;3.33;100.00
18987;BME280;9627;59.236;18.142;2023-03-18T02:31:22;100506.03;;;3.28;100.00
18987;BME280;9627;59.236;18.142;2023-03-18T02:33:50;100500.25;;;3.15;100.00
18987;BME280;9627;59.236;18.142;2023-03-18T02:36:18;100508.13;;;3.15;100.00
18987;BME280;9627;59.236;18.142;2023-03-18T02:38:45;100496.13;;;3.13;100.00
18987;BME280;9627;59.236;18.142;2023-03-18T02:41:13;100488.38;;;3.21;100.00
18987;BME280;9627;59.236;18.142;2023-03-18T02:43:41;100488.69;;;3.08;100.00
18987;BME280;9627;59.236;18.142;2023-03-18T02:46:16;100482.31;;;3.20;100.00
18987;BME280;9627;59.236;18.142;2023-03-18T02:48:47;100469.47;;;3.17;100.00
18987;BME280;9627;59.236;18.142;2023-03-18T02:51:15;100465.78;;;3.10;100.00
18987;BME280;9627;59.236;18.142;2023-03-18T02:53:43;100460.56;;;3.01;100.00
18987;BME280;9627;59.236;18.142;2023-03-18T02:56:10;100457.09;;;3.00;100.00
18987;BME280;9627;59.236;18.142;2023-03-18T02:58:38;100445.78;;;3.00;100.00
18987;BME280;9627;59.236;18.142;2023-03-18T03:01:05;100444.94;;;3.09;100.00
18987;BME280;9627;59.236;18.142;2023-03-18T03:03:35;100445.78;;;3.00;100.00
18987;BME280;9627;59.236;18.142;2023-03-18T03:06:02;100439.56;;;3.10;100.00
18987;BME280;9627;59.236;18.142;2023-03-18T03:08:30;100434.88;;;3.04;100.00
18987;BME280;9627;59.236;18.142;2023-03-18T03:10:57;100439.13;;;3.05;100.00
18987;BME280;9627;59.236;18.142;2023-03-18T03:13:24;100436.53;;;3.05;100.00
18987;BME280;9627;59.236;18.142;2023-03-18T03:15:51;100430.47;;;3.05;100.00
18987;BME280;9627;59.236;18.142;2023-03-18T03:18:20;100435.94;;;3.11;100.00
18987;BME280;9627;59.236;18.142;2023-03-18T03:20:50;100433.63;;;3.08;100.00
18987;BME280;9627;59.236;18.142;2023-03-18T03:23:17;100436.25;;;3.08;100.00
18987;BME280;9627;59.236;18.142;2023-03-18T03:25:44;100444.25;;;3.07;100.00
18987;BME280;9627;59.236;18.142;2023-03-18T03:28:12;100448.00;;;3.04;100.00
18987;BME280;9627;59.236;18.142;2023-03-18T03:30:40;100444.28;;;2.97;100.00
18987;BME280;9627;59.236;18.142;2023-03-18T03:33:07;100445.25;;;2.96;100.00
18987;BME280;9627;59.236;18.142;2023-03-18T03:35:35;100449.09;;;3.02;100.00
18987;BME280;9627;59.236;18.142;2023-03-18T03:38:04;100450.06;;;3.01;100.00
18987;BME280;9627;59.236;18.142;2023-03-18T03:40:31;100447.44;;;3.10;100.00
18987;BME280;9627;59.236;18.142;2023-03-18T03:42:58;100455.03;;;2.94;100.00
18987;BME280;9627;59.236;18.142;2023-03-18T03:45:25;100446.66;;;2.91;100.00
18987;BME280;9627;59.236;18.142;2023-03-18T03:47:52;100457.78;;;3.02;100.00
18987;BME280;9627;59.236;18.142;2023-03-18T03:50:20;100453.38;;;3.03;100.00
18987;BME280;9627;59.236;18.142;2023-03-18T03:52:47;100453.41;;;2.93;100.00
18987;BME280;9627;59.236;18.142;2023-03-18T03:55:17;100455.59;;;2.88;100.00
18987;BME280;9627;59.236;18.142;2023-03-18T03:57:44;100447.03;;;2.96;100.00
18987;BME280;9627;59.236;18.142;2023-03-18T04:00:12;100442.22;;;2.91;100.00
18987;BME280;9627;59.236;18.142;2023-03-18T04:02:40;100453.97;;;2.87;100.00
18987;BME280;9627;59.236;18.142;2023-03-18T04:05:09;100437.66;;;3.03;100.00
18987;BME280;9627;59.236;18.142;2023-03-18T04:07:36;100441.56;;;2.89;100.00
18987;BME280;9627;59.236;18.142;2023-03-18T04:10:05;100435.06;;;2.93;100.00
18987;BME280;9627;59.236;18.142;2023-03-18T04:12:35;100441.81;;;2.86;100.00
18987;BME280;9627;59.236;18.142;2023-03-18T04:15:02;100439.88;;;2.88;100.00
18987;BME280;9627;59.236;18.142;2023-03-18T04:17:30;100433.81;;;2.97;100.00
18987;BME280;9627;59.236;18.142;2023-03-18T04:19:57;100432.97;;;2.97;100.00
18987;BME280;9627;59.236;18.142;2023-03-18T04:22:24;100431.97;;;3.07;100.00
18987;BME280;9627;59.236;18.142;2023-03-18T04:24:51;100437.34;;;3.06;100.00
18987;BME280;9627;59.236;18.142;2023-03-18T04:27:18;100449.81;;;2.84;100.00
18987;BME280;9627;59.236;18.142;2023-03-18T04:29:48;100446.09;;;2.97;100.00
18987;BME280;9627;59.236;18.142;2023-03-18T04:32:16;100437.81;;;2.92;100.00
18987;BME280;9627;59.236;18.142;2023-03-18T04:34:43;100446.78;;;2.89;100.00
18987;BME280;9627;59.236;18.142;2023-03-18T04:37:10;100444.00;;;3.00;100.00
18987;BME280;9627;59.236;18.142;2023-03-18T04:39:38;100453.09;;;3.06;100.00
18987;BME280;9627;59.236;18.142;2023-03-18T04:42:06;100448.31;;;2.92;100.00
18987;BME280;9627;59.236;18.142;2023-03-18T04:44:33;100451.88;;;3.00;100.00
18987;BME280;9627;59.236;18.142;2023-03-18T04:47:03;100445.81;;;2.90;100.00
18987;BME280;9627;59.236;18.142;2023-03-18T04:49:30;100453.91;;;3.06;100.00
18987;BME280;9627;59.236;18.142;2023-03-18T04:51:58;100453.81;;;2.98;100.00
18987;BME280;9627;59.236;18.142;2023-03-18T04:54:26;100440.97;;;2.95;100.00
18987;BME280;9627;59.236;18.142;2023-03-18T04:56:53;100436.84;;;2.93;100.00
18987;BME280;9627;59.236;18.142;2023-03-18T04:59:20;100439.06;;;2.97;100.00
18987;BME280;9627;59.236;18.142;2023-03-18T05:01:47;100444.84;;;2.91;100.00
18987;BME280;9627;59.236;18.142;2023-03-18T05:04:16;100444.16;;;2.89;100.00
18987;BME280;9627;59.236;18.142;2023-03-18T05:06:43;100446.66;;;2.91;100.00
18987;BME280;9627;59.236;18.142;2023-03-18T05:09:10;100441.94;;;2.94;100.00
18987;BME280;9627;59.236;18.142;2023-03-18T05:11:38;100431.06;;;2.89;100.00
18987;BME280;9627;59.236;18.142;2023-03-18T05:14:05;100435.91;;;2.84;100.00
18987;BME280;9627;59.236;18.142;2023-03-18T05:16:32;100443.75;;;2.94;100.00
18987;BME280;9627;59.236;18.142;2023-03-18T05:19:00;100445.13;;;2.88;100.00
18987;BME280;9627;59.236;18.142;2023-03-18T05:21:28;100451.66;;;2.84;100.00
18987;BME280;9627;59.236;18.142;2023-03-18T05:23:55;100440.56;;;2.90;100.00
18987;BME280;9627;59.236;18.142;2023-03-18T05:26:22;100447.34;;;2.83;100.00
18987;BME280;9627;59.236;18.142;2023-03-18T05:28:50;100450.69;;;2.75;100.00
18987;BME280;9627;59.236;18.142;2023-03-18T05:31:17;100447.47;;;2.91;100.00
18987;BME280;9627;59.236;18.142;2023-03-18T05:33:45;100454.38;;;2.82;100.00
18987;BME280;9627;59.236;18.142;2023-03-18T05:36:12;100457.84;;;2.83;100.00
18987;BME280;9627;59.236;18.142;2023-03-18T05:38:40;100463.09;;;2.83;100.00
18987;BME280;9627;59.236;18.142;2023-03-18T05:41:08;100458.94;;;2.71;100.00
18987;BME280;9627;59.236;18.142;2023-03-18T05:43:35;100460.19;;;2.67;100.00
18987;BME280;9627;59.236;18.142;2023-03-18T05:46:02;100454.66;;;2.89;100.00
18987;BME280;9627;59.236;18.142;2023-03-18T05:48:30;100452.47;;;2.75;100.00
18987;BME280;9627;59.236;18.142;2023-03-18T05:50:57;100458.81;;;2.82;100.00
18987;BME280;9627;59.236;18.142;2023-03-18T05:53:24;100455.91;;;2.75;100.00
18987;BME280;9627;59.236;18.142;2023-03-18T05:55:53;100442.94;;;2.83;100.00
18987;BME280;9627;59.236;18.142;2023-03-18T05:58:20;100443.81;;;2.74;100.00
18987;BME280;9627;59.236;18.142;2023-03-18T06:00:48;100441.84;;;2.76;100.00
18987;BME280;9627;59.236;18.142;2023-03-18T06:03:15;100443.63;;;2.86;100.00
18987;BME280;9627;59.236;18.142;2023-03-18T06:05:42;100443.91;;;2.73;100.00
18987;BME280;9627;59.236;18.142;2023-03-18T06:08:10;100449.03;;;2.74;100.00
18987;BME280;9627;59.236;18.142;2023-03-18T06:10:37;100436.19;;;2.81;100.00
18987;BME280;9627;59.236;18.142;2023-03-18T06:13:06;100450.97;;;2.82;100.00
18987;BME280;9627;59.236;18.142;2023-03-18T06:15:33;100438.13;;;2.79;100.00
18987;BME280;9627;59.236;18.142;2023-03-18T06:18:01;100437.69;;;2.83;100.00
18987;BME280;9627;59.236;18.142;2023-03-18T06:20:28;100429.41;;;2.78;100.00
18987;BME280;9627;59.236;18.142;2023-03-18T06:22:56;100425.00;;;2.79;100.00
18987;BME280;9627;59.236;18.142;2023-03-18T06:25:24;100415.91;;;2.83;100.00
18987;BME280;9627;59.236;18.142;2023-03-18T06:27:51;100425.81;;;2.89;100.00
18987;BME280;9627;59.236;18.142;2023-03-18T06:30:20;100416.84;;;2.92;100.00
18987;BME280;9627;59.236;18.142;2023-03-18T06:32:47;100413.66;;;2.88;100.00
18987;BME280;9627;59.236;18.142;2023-03-18T06:35:14;100412.84;;;2.88;100.00
18987;BME280;9627;59.236;18.142;2023-03-18T06:37:41;100411.34;;;2.85;100.00
18987;BME280;9627;59.236;18.142;2023-03-18T06:40:09;100428.84;;;2.94;100.00
18987;BME280;9627;59.236;18.142;2023-03-18T06:42:36;100419.88;;;2.87;100.00
18987;BME280;9627;59.236;18.142;2023-03-18T06:45:04;100419.19;;;2.85;100.00
18987;BME280;9627;59.236;18.142;2023-03-18T06:47:33;100426.34;;;2.93;100.00
18987;BME280;9627;59.236;18.142;2023-03-18T06:50:00;100425.13;;;2.87;100.00
18987;BME280;9627;59.236;18.142;2023-03-18T06:52:27;100422.91;;;2.92;100.00
18987;BME280;9627;59.236;18.142;2023-03-18T06:54:54;100431.47;;;2.84;100.00
18987;BME280;9627;59.236;18.142;2023-03-18T06:57:21;100429.13;;;2.91;100.00
18987;BME280;9627;59.236;18.142;2023-03-18T06:59:48;100426.09;;;2.86;100.00
18987;BME280;9627;59.236;18.142;2023-03-18T07:02:16;100428.06;;;2.84;100.00
18987;BME280;9627;59.236;18.142;2023-03-18T07:04:45;100424.72;;;2.92;100.00
18987;BME280;9627;59.236;18.142;2023-03-18T07:07:12;100430.19;;;2.98;100.00
18987;BME280;9627;59.236;18.142;2023-03-18T07:09:39;100436.28;;;2.99;100.00
18987;BME280;9627;59.236;18.142;2023-03-18T07:12:08;100441.91;;;3.04;100.00
18987;BME280;9627;59.236;18.142;2023-03-18T07:14:35;100452.22;;;3.15;100.00
18987;BME280;9627;59.236;18.142;2023-03-18T07:17:02;100450.28;;;3.17;100.00
18987;BME280;9627;59.236;18.142;2023-03-18T07:19:29;100456.53;;;3.06;100.00
18987;BME280;9627;59.236;18.142;2023-03-18T07:21:59;100456.94;;;3.11;100.00
18987;BME280;9627;59.236;18.142;2023-03-18T07:24:26;100463.09;;;3.29;100.00
18987;BME280;9627;59.236;18.142;2023-03-18T07:26:54;100460.22;;;3.23;100.00
18987;BME280;9627;59.236;18.142;2023-03-18T07:29:21;100453.44;;;3.30;100.00
18987;BME280;9627;59.236;18.142;2023-03-18T07:31:49;100461.31;;;3.30;100.00
18987;BME280;9627;59.236;18.142;2023-03-18T07:34:16;100456.59;;;3.33;100.00
18987;BME280;9627;59.236;18.142;2023-03-18T07:36:43;100454.69;;;3.26;100.00
18987;BME280;9627;59.236;18.142;2023-03-18T07:39:12;100464.31;;;3.35;100.00
18987;BME280;9627;59.236;18.142;2023-03-18T07:41:40;100461.44;;;3.28;100.00
18987;BME280;9627;59.236;18.142;2023-03-18T07:44:07;100469.16;;;3.39;100.00
18987;BME280;9627;59.236;18.142;2023-03-18T07:46:34;100472.88;;;3.37;100.00
18987;BME280;9627;59.236;18.142;2023-03-18T07:49:01;100472.91;;;3.27;100.00
18987;BME280;9627;59.236;18.142;2023-03-18T07:51:29;100471.50;;;3.33;100.00
18987;BME280;9627;59.236;18.142;2023-03-18T07:53:56;100468.69;;;3.44;100.00
18987;BME280;9627;59.236;18.142;2023-03-18T07:56:25;100469.53;;;3.44;100.00
18987;BME280;9627;59.236;18.142;2023-03-18T07:58:52;100472.16;;;3.44;100.00
18987;BME280;9627;59.236;18.142;2023-03-18T08:01:20;100476.75;;;3.33;100.00
18987;BME280;9627;59.236;18.142;2023-03-18T08:03:47;100470.25;;;3.37;100.00
18987;BME280;9627;59.236;18.142;2023-03-18T08:06:14;100471.13;;;3.28;100.00
18987;BME280;9627;59.236;18.142;2023-03-18T08:08:41;100463.41;;;3.53;100.00
18987;BME280;9627;59.236;18.142;2023-03-18T08:11:09;100473.72;;;3.37;100.00
18987;BME280;9627;59.236;18.142;2023-03-18T08:13:39;100466.59;;;3.47;100.00
18987;BME280;9627;59.236;18.142;2023-03-18T08:16:06;100463.56;;;3.52;100.00
18987;BME280;9627;59.236;18.142;2023-03-18T08:18:33;100463.41;;;3.53;100.00
18987;BME280;9627;59.236;18.142;2023-03-18T08:21:00;100469.91;;;3.49;100.00
18987;BME280;9627;59.236;18.142;2023-03-18T08:23:28;100468.06;;;3.59;100.00
18987;BME280;9627;59.236;18.142;2023-03-18T08:25:55;100466.31;;;3.50;100.00
18987;BME280;9627;59.236;18.142;2023-03-18T08:28:21;100461.94;;;3.68;100.00
18987;BME280;9627;59.236;18.142;2023-03-18T08:30:54;100458.56;;;3.58;100.00
18987;BME280;9627;59.236;18.142;2023-03-18T08:33:21;100460.56;;;3.64;100.00
18987;BME280;9627;59.236;18.142;2023-03-18T08:35:49;100454.78;;;3.61;100.00
18987;BME280;9627;59.236;18.142;2023-03-18T08:38:16;100458.25;;;3.61;100.00
18987;BME280;9627;59.236;18.142;2023-03-18T08:40:43;100454.78;;;3.61;100.00
18987;BME280;9627;59.236;18.142;2023-03-18T08:43:11;100455.84;;;3.68;100.00
18987;BME280;9627;59.236;18.142;2023-03-18T08:45:39;100456.16;;;3.65;100.00
18987;BME280;9627;59.236;18.142;2023-03-18T08:48:08;100459.66;;;3.56;100.00
18987;BME280;9627;59.236;18.142;2023-03-18T08:50:35;100457.09;;;3.73;100.00
18987;BME280;9627;59.236;18.142;2023-03-18T08:53:03;100454.22;;;3.67;100.00
18987;BME280;9627;59.236;18.142;2023-03-18T08:55:31;100465.78;;;3.74;100.00
18987;BME280;9627;59.236;18.142;2023-03-18T08:58:00;100448.81;;;3.68;100.00
18987;BME280;9627;59.236;18.142;2023-03-18T09:00:28;100456.50;;;3.52;100.00
18987;BME280;9627;59.236;18.142;2023-03-18T09:02:55;100456.00;;;3.66;100.00
18987;BME280;9627;59.236;18.142;2023-03-18T09:05:24;100456.22;;;3.55;100.00
18987;BME280;9627;59.236;18.142;2023-03-18T09:07:51;100445.81;;;3.63;100.00
18987;BME280;9627;59.236;18.142;2023-03-18T09:10:18;100451.78;;;3.56;100.00
18987;BME280;9627;59.236;18.142;2023-03-18T09:12:46;100453.88;;;3.52;100.00
18987;BME280;9627;59.236;18.142;2023-03-18T09:15:14;100459.78;;;3.64;100.00
18987;BME280;9627;59.236;18.142;2023-03-18T09:17:41;100462.66;;;3.61;100.00
18987;BME280;9627;59.236;18.142;2023-03-18T09:20:09;100459.38;;;3.59;100.00
18987;BME280;9627;59.236;18.142;2023-03-18T09:22:39;100459.72;;;3.73;100.00
18987;BME280;9627;59.236;18.142;2023-03-18T09:25:07;100458.59;;;3.49;100.00
18987;BME280;9627;59.236;18.142;2023-03-18T09:27:34;100456.84;;;3.67;100.00
18987;BME280;9627;59.236;18.142;2023-03-18T09:30:02;100459.81;;;3.54;100.00
18987;BME280;9627;59.236;18.142;2023-03-18T09:32:29;100458.44;;;3.50;100.00
18987;BME280;9627;59.236;18.142;2023-03-18T09:34:57;100469.53;;;3.44;100.00
18987;BME280;9627;59.236;18.142;2023-03-18T09:37:24;100472.69;;;3.48;100.00
18987;BME280;9627;59.236;18.142;2023-03-18T09:39:53;100473.94;;;3.44;100.00
18987;BME280;9627;59.236;18.142;2023-03-18T09:42:35;100476.28;;;3.47;100.00
18987;BME280;9627;59.236;18.142;2023-03-18T09:45:18;100468.16;;;3.40;100.00
18987;BME280;9627;59.236;18.142;2023-03-18T09:47:55;100477.94;;;3.48;100.00
18987;BME280;9627;59.236;18.142;2023-03-18T09:50:33;100485.53;;;3.41;100.00
18987;BME280;9627;59.236;18.142;2023-03-18T09:53:09;100463.69;;;3.50;100.00
18987;BME280;9627;59.236;18.142;2023-03-18T09:55:40;100475.88;;;3.42;100.00
18987;BME280;9627;59.236;18.142;2023-03-18T09:58:15;100486.53;;;3.40;100.00
18987;BME280;9627;59.236;18.142;2023-03-18T10:00:43;100483.06;;;3.40;100.00
18987;BME280;9627;59.236;18.142;2023-03-18T10:03:12;100481.34;;;3.58;100.00
18987;BME280;9627;59.236;18.142;2023-03-18T10:05:43;100477.41;;;3.44;100.00
18987;BME280;9627;59.236;18.142;2023-03-18T10:08:15;100478.56;;;3.59;100.00
18987;BME280;9627;59.236;18.142;2023-03-18T10:10:46;100482.22;;;3.49;100.00
18987;BME280;9627;59.236;18.142;2023-03-18T10:13:15;100465.88;;;3.55;100.00
18987;BME280;9627;59.236;18.142;2023-03-18T10:15:44;100481.63;;;3.55;100.00
18987;BME280;9627;59.236;18.142;2023-03-18T10:18:17;100473.63;;;3.56;100.00
18987;BME280;9627;59.236;18.142;2023-03-18T10:20:57;100469.22;;;3.47;100.00
18987;BME280;9627;59.236;18.142;2023-03-18T10:23:30;100471.84;;;3.47;100.00
18987;BME280;9627;59.236;18.142;2023-03-18T10:26:03;100465.88;;;3.55;100.00
18987;BME280;9627;59.236;18.142;2023-03-18T10:28:42;100468.94;;;3.50;100.00
18987;BME280;9627;59.236;18.142;2023-03-18T10:31:17;100471.00;;;3.56;100.00
18987;BME280;9627;59.236;18.142;2023-03-18T10:33:52;100458.97;;;3.54;100.00
18987;BME280;9627;59.236;18.142;2023-03-18T10:36:23;100470.13;;;3.65;100.00
18987;BME280;9627;59.236;18.142;2023-03-18T10:38:53;100469.44;;;3.63;100.00
18987;BME280;9627;59.236;18.142;2023-03-18T10:41:24;100466.47;;;3.49;100.00
18987;BME280;9627;59.236;18.142;2023-03-18T10:43:55;100469.97;;;3.67;100.00
18987;BME280;9627;59.236;18.142;2023-03-18T10:46:22;100469.72;;;3.60;100.00
18987;BME280;9627;59.236;18.142;2023-03-18T10:48:51;100465.56;;;3.67;100.00
18987;BME280;9627;59.236;18.142;2023-03-18T10:51:20;100460.00;;;3.70;100.00
18987;BME280;9627;59.236;18.142;2023-03-18T10:53:51;100461.66;;;3.71;100.00
18987;BME280;9627;59.236;18.142;2023-03-18T10:56:22;100461.09;;;3.68;100.00
18987;BME280;9627;59.236;18.142;2023-03-18T10:58:50;100472.50;;;3.59;100.00
18987;BME280;9627;59.236;18.142;2023-03-18T11:01:18;100460.84;;;3.71;100.00
18987;BME280;9627;59.236;18.142;2023-03-18T11:03:50;100468.50;;;3.82;100.00
18987;BME280;9627;59.236;18.142;2023-03-18T11:06:19;100465.56;;;3.67;100.00
18987;BME280;9627;59.236;18.142;2023-03-18T11:08:48;100462.88;;;3.77;100.00
18987;BME280;9627;59.236;18.142;2023-03-18T11:11:19;100458.31;;;3.79;100.00
18987;BME280;9627;59.236;18.142;2023-03-18T11:13:50;100453.38;;;3.94;100.00
18987;BME280;9627;59.236;18.142;2023-03-18T11:16:22;100465.53;;;3.95;100.00
18987;BME280;9627;59.236;18.142;2023-03-18T11:18:50;100460.09;;;3.78;100.00
18987;BME280;9627;59.236;18.142;2023-03-18T11:21:18;100454.94;;;3.87;100.00
18987;BME280;9627;59.236;18.142;2023-03-18T11:23:51;100456.09;;;3.74;100.00
18987;BME280;9627;59.236;18.142;2023-03-18T11:26:42;100449.81;;;3.67;100.00
18987;BME280;9627;59.236;18.142;2023-03-18T11:29:12;100453.63;;;3.73;100.00
18987;BME280;9627;59.236;18.142;2023-03-18T11:31:48;100445.59;;;3.74;100.00
18987;BME280;9627;59.236;18.142;2023-03-18T11:34:17;100458.06;;;3.72;100.00
18987;BME280;9627;59.236;18.142;2023-03-18T11:36:51;100458.34;;;3.69;100.00
18987;BME280;9627;59.236;18.142;2023-03-18T11:39:19;100457.56;;;3.59;100.00
18987;BME280;9627;59.236;18.142;2023-03-18T11:41:47;100453.00;;;3.61;100.00
18987;BME280;9627;59.236;18.142;2023-03-18T11:44:17;100454.00;;;3.51;100.00
18987;BME280;9627;59.236;18.142;2023-03-18T11:46:46;100454.94;;;3.59;100.00
18987;BME280;9627;59.236;18.142;2023-03-18T11:49:15;100465.19;;;3.53;100.00
18987;BME280;9627;59.236;18.142;2023-03-18T11:51:45;100456.41;;;3.71;100.00
18987;BME280;9627;59.236;18.142;2023-03-18T11:54:21;100453.31;;;3.76;100.00
18987;BME280;9627;59.236;18.142;2023-03-18T11:56:53;100451.22;;;3.79;100.00
18987;BME280;9627;59.236;18.142;2023-03-18T12:02:11;100453.53;;;3.65;100.00
18987;BME280;9627;59.236;18.142;2023-03-18T12:07:40;100439.34;;;3.58;100.00
18987;BME280;9627;59.236;18.142;2023-03-18T12:10:16;100443.09;;;3.55;100.00
18987;BME280;9627;59.236;18.142;2023-03-18T12:12:48;100443.25;;;3.54;100.00
18987;BME280;9627;59.236;18.142;2023-03-18T12:15:22;100445.50;;;3.66;100.00
18987;BME280;9627;59.236;18.142;2023-03-18T12:17:58;100449.44;;;3.53;100.00
18987;BME280;9627;59.236;18.142;2023-03-18T12:20:40;100452.06;;;3.53;100.00
18987;BME280;9627;59.236;18.142;2023-03-18T12:23:12;100458.16;;;3.53;100.00
18987;BME280;9627;59.236;18.142;2023-03-18T12:25:51;100455.63;;;3.61;100.00
18987;BME280;9627;59.236;18.142;2023-03-18T12:28:23;100440.22;;;3.49;100.00
18987;BME280;9627;59.236;18.142;2023-03-18T12:30:57;100452.38;;;3.50;100.00
18987;BME280;9627;59.236;18.142;2023-03-18T12:36:17;100449.09;;;3.38;100.00
18987;BME280;9627;59.236;18.142;2023-03-18T12:41:31;100443.50;;;3.51;100.00
18987;BME280;9627;59.236;18.142;2023-03-18T12:44:15;100448.97;;;3.40;100.00
18987;BME280;9627;59.236;18.142;2023-03-18T12:46:47;100445.25;;;3.33;100.00
18987;BME280;9627;59.236;18.142;2023-03-18T12:49:18;100438.91;;;3.35;100.00
18987;BME280;9627;59.236;18.142;2023-03-18T12:51:49;100439.16;;;3.42;100.00
18987;BME280;9627;59.236;18.142;2023-03-18T12:54:23;100440.50;;;3.46;100.00
18987;BME280;9627;59.236;18.142;2023-03-18T12:56:53;100442.13;;;3.56;100.00
18987;BME280;9627;59.236;18.142;2023-03-18T12:59:23;100444.03;;;3.64;100.00
18987;BME280;9627;59.236;18.142;2023-03-18T13:01:56;100444.66;;;3.48;100.00
18987;BME280;9627;59.236;18.142;2023-03-18T13:04:28;100449.78;;;3.40;100.00
18987;BME280;9627;59.236;18.142;2023-03-18T13:07:00;100451.72;;;3.38;100.00
18987;BME280;9627;59.236;18.142;2023-03-18T13:09:31;100453.28;;;3.31;100.00